sensor_id;sensor_type;location;lat;lon;timestamp;P1;durP1;ratioP1;P2;durP2;ratioP2
2416;SDS011;1219;48.736;9.330;2022-12-29T00:01:16;11.47;;;10.37;;
2416;SDS011;1219;48.736;9.330;2022-12-29T00:03:42;11.23;;;10.00;;
2416;SDS011;1219;48.736;9.330;2022-12-29T00:06:11;11.13;;;10.03;;
2416;SDS011;1219;48.736;9.330;2022-12-29T00:08:37;11.17;;;9.17;;
2416;SDS011;1219;48.736;9.330;2022-12-29T00:11:10;14.43;;;9.70;;
2416;SDS011;1219;48.736;9.330;2022-12-29T00:13:36;9.50;;;8.30;;
2416;SDS011;1219;48.736;9.330;2022-12-29T00:16:21;11.10;;;8.80;;
2416;SDS011;1219;48.736;9.330;2022-12-29T00:18:47;9.93;;;9.00;;
2416;SDS011;1219;48.736;9.330;2022-12-29T00:21:14;12.13;;;8.83;;
2416;SDS011;1219;48.736;9.330;2022-12-29T00:23:59;10.40;;;8.77;;
2416;SDS011;1219;48.736;9.330;2022-12-29T00:26:56;9.47;;;8.07;;
2416;SDS011;1219;48.736;9.330;2022-12-29T00:29:42;14.57;;;10.47;;
2416;SDS011;1219;48.736;9.330;2022-12-29T00:32:28;14.90;;;12.00;;
2416;SDS011;1219;48.736;9.330;2022-12-29T00:35:14;9.93;;;8.93;;
2416;SDS011;1219;48.736;9.330;2022-12-29T00:37:42;9.77;;;8.70;;
2416;SDS011;1219;48.736;9.330;2022-12-29T00:40:28;11.70;;;9.53;;
2416;SDS011;1219;48.736;9.330;2022-12-29T00:43:12;14.50;;;11.50;;
2416;SDS011;1219;48.736;9.330;2022-12-29T00:45:57;20.13;;;13.00;;
2416;SDS011;1219;48.736;9.330;2022-12-29T00:48:23;21.53;;;11.60;;
2416;SDS011;1219;48.736;9.330;2022-12-29T00:51:08;16.17;;;12.00;;
2416;SDS011;1219;48.736;9.330;2022-12-29T00:53:34;21.33;;;14.73;;
2416;SDS011;1219;48.736;9.330;2022-12-29T00:56:00;35.27;;;18.60;;
2416;SDS011;1219;48.736;9.330;2022-12-29T00:58:27;20.53;;;11.63;;
2416;SDS011;1219;48.736;9.330;2022-12-29T01:01:00;13.07;;;8.93;;
2416;SDS011;1219;48.736;9.330;2022-12-29T01:03:26;13.87;;;9.13;;
2416;SDS011;1219;48.736;9.330;2022-12-29T01:05:52;11.97;;;10.00;;
2416;SDS011;1219;48.736;9.330;2022-12-29T01:08:18;12.97;;;8.57;;
2416;SDS011;1219;48.736;9.330;2022-12-29T01:10:44;11.07;;;9.57;;
2416;SDS011;1219;48.736;9.330;2022-12-29T01:13:10;11.30;;;9.10;;
2416;SDS011;1219;48.736;9.330;2022-12-29T01:15:36;14.30;;;9.00;;
2416;SDS011;1219;48.736;9.330;2022-12-29T01:18:02;12.13;;;8.80;;
2416;SDS011;1219;48.736;9.330;2022-12-29T01:20:28;10.10;;;9.00;;
2416;SDS011;1219;48.736;9.330;2022-12-29T01:22:54;10.87;;;8.60;;
2416;SDS011;1219;48.736;9.330;2022-12-29T01:25:20;9.43;;;8.50;;
2416;SDS011;1219;48.736;9.330;2022-12-29T01:27:46;11.77;;;9.20;;
2416;SDS011;1219;48.736;9.330;2022-12-29T01:30:12;11.90;;;8.67;;
2416;SDS011;1219;48.736;9.330;2022-12-29T01:32:38;13.03;;;8.80;;
2416;SDS011;1219;48.736;9.330;2022-12-29T01:35:04;11.87;;;9.27;;
2416;SDS011;1219;48.736;9.330;2022-12-29T01:37:30;9.27;;;8.27;;
2416;SDS011;1219;48.736;9.330;2022-12-29T01:39:56;11.43;;;9.30;;
2416;SDS011;1219;48.736;9.330;2022-12-29T01:42:23;11.30;;;8.87;;
2416;SDS011;1219;48.736;9.330;2022-12-29T01:44:52;10.63;;;8.90;;
2416;SDS011;1219;48.736;9.330;2022-12-29T01:47:21;11.00;;;8.07;;
2416;SDS011;1219;48.736;9.330;2022-12-29T01:49:57;11.07;;;7.47;;
2416;SDS011;1219;48.736;9.330;2022-12-29T01:52:24;9.17;;;7.50;;
2416;SDS011;1219;48.736;9.330;2022-12-29T01:54:52;9.03;;;7.43;;
2416;SDS011;1219;48.736;9.330;2022-12-29T01:57:21;7.80;;;7.03;;
2416;SDS011;1219;48.736;9.330;2022-12-29T01:59:50;9.77;;;8.50;;
2416;SDS011;1219;48.736;9.330;2022-12-29T02:02:17;7.03;;;6.33;;
2416;SDS011;1219;48.736;9.330;2022-12-29T02:04:43;12.67;;;7.30;;
2416;SDS011;1219;48.736;9.330;2022-12-29T02:07:19;9.30;;;7.30;;
2416;SDS011;1219;48.736;9.330;2022-12-29T02:09:46;9.30;;;7.70;;
2416;SDS011;1219;48.736;9.330;2022-12-29T02:12:13;7.93;;;7.03;;
2416;SDS011;1219;48.736;9.330;2022-12-29T02:14:39;7.33;;;6.60;;
2416;SDS011;1219;48.736;9.330;2022-12-29T02:25:24;8.90;;;8.00;;
2416;SDS011;1219;48.736;9.330;2022-12-29T02:36:06;9.53;;;7.40;;
2416;SDS011;1219;48.736;9.330;2022-12-29T02:46:22;11.23;;;7.40;;
2416;SDS011;1219;48.736;9.330;2022-12-29T02:48:55;7.87;;;6.93;;
2416;SDS011;1219;48.736;9.330;2022-12-29T02:51:26;11.23;;;7.47;;
2416;SDS011;1219;48.736;9.330;2022-12-29T02:53:54;10.63;;;7.70;;
2416;SDS011;1219;48.736;9.330;2022-12-29T02:56:39;9.40;;;7.20;;
2416;SDS011;1219;48.736;9.330;2022-12-29T02:59:05;8.37;;;7.43;;
2416;SDS011;1219;48.736;9.330;2022-12-29T03:04:44;7.90;;;5.93;;
2416;SDS011;1219;48.736;9.330;2022-12-29T03:06:52;4.90;;;4.50;;
2416;SDS011;1219;48.736;9.330;2022-12-29T03:09:24;4.10;;;3.30;;
2416;SDS011;1219;48.736;9.330;2022-12-29T03:11:59;6.87;;;3.40;;
2416;SDS011;1219;48.736;9.330;2022-12-29T03:14:37;3.93;;;3.53;;
2416;SDS011;1219;48.736;9.330;2022-12-29T03:17:35;2.70;;;2.50;;
2416;SDS011;1219;48.736;9.330;2022-12-29T03:20:04;6.43;;;2.33;;
2416;SDS011;1219;48.736;9.330;2022-12-29T03:22:32;2.50;;;2.30;;
2416;SDS011;1219;48.736;9.330;2022-12-29T03:25:13;2.33;;;1.90;;
2416;SDS011;1219;48.736;9.330;2022-12-29T03:27:42;2.60;;;1.80;;
2416;SDS011;1219;48.736;9.330;2022-12-29T03:30:09;3.07;;;1.80;;
2416;SDS011;1219;48.736;9.330;2022-12-29T03:32:38;1.60;;;1.50;;
2416;SDS011;1219;48.736;9.330;2022-12-29T03:35:06;2.10;;;1.73;;
2416;SDS011;1219;48.736;9.330;2022-12-29T03:37:38;7.10;;;2.33;;
2416;SDS011;1219;48.736;9.330;2022-12-29T03:40:04;1.73;;;1.63;;
2416;SDS011;1219;48.736;9.330;2022-12-29T03:42:32;1.53;;;1.43;;
2416;SDS011;1219;48.736;9.330;2022-12-29T03:44:59;1.70;;;1.60;;
2416;SDS011;1219;48.736;9.330;2022-12-29T03:47:25;1.60;;;1.50;;
2416;SDS011;1219;48.736;9.330;2022-12-29T03:49:51;5.23;;;1.70;;
2416;SDS011;1219;48.736;9.330;2022-12-29T03:52:17;1.70;;;1.50;;
2416;SDS011;1219;48.736;9.330;2022-12-29T03:54:43;1.80;;;1.43;;
2416;SDS011;1219;48.736;9.330;2022-12-29T03:57:10;1.43;;;1.33;;
2416;SDS011;1219;48.736;9.330;2022-12-29T03:59:36;2.27;;;1.50;;
2416;SDS011;1219;48.736;9.330;2022-12-29T04:02:17;3.33;;;1.70;;
2416;SDS011;1219;48.736;9.330;2022-12-29T04:04:43;1.93;;;1.83;;
2416;SDS011;1219;48.736;9.330;2022-12-29T04:07:09;2.50;;;1.50;;
2416;SDS011;1219;48.736;9.330;2022-12-29T04:09:35;2.90;;;1.70;;
2416;SDS011;1219;48.736;9.330;2022-12-29T04:12:01;2.70;;;1.43;;
2416;SDS011;1219;48.736;9.330;2022-12-29T04:14:27;1.47;;;1.37;;
2416;SDS011;1219;48.736;9.330;2022-12-29T04:16:53;2.63;;;1.47;;
2416;SDS011;1219;48.736;9.330;2022-12-29T04:19:18;1.60;;;1.30;;
2416;SDS011;1219;48.736;9.330;2022-12-29T04:21:44;1.50;;;1.40;;
2416;SDS011;1219;48.736;9.330;2022-12-29T04:24:10;1.80;;;1.70;;
2416;SDS011;1219;48.736;9.330;2022-12-29T04:26:37;2.90;;;2.03;;
2416;SDS011;1219;48.736;9.330;2022-12-29T04:29:03;1.50;;;1.40;;
2416;SDS011;1219;48.736;9.330;2022-12-29T04:31:29;1.87;;;1.40;;
2416;SDS011;1219;48.736;9.330;2022-12-29T04:33:55;1.63;;;1.47;;
2416;SDS011;1219;48.736;9.330;2022-12-29T04:36:22;2.43;;;1.70;;
2416;SDS011;1219;48.736;9.330;2022-12-29T04:38:48;2.40;;;1.37;;
2416;SDS011;1219;48.736;9.330;2022-12-29T04:41:14;1.60;;;1.50;;
2416;SDS011;1219;48.736;9.330;2022-12-29T04:43:40;2.40;;;1.60;;
2416;SDS011;1219;48.736;9.330;2022-12-29T04:46:06;2.60;;;1.67;;
2416;SDS011;1219;48.736;9.330;2022-12-29T04:48:32;2.50;;;1.60;;
2416;SDS011;1219;48.736;9.330;2022-12-29T04:50:58;1.83;;;1.70;;
2416;SDS011;1219;48.736;9.330;2022-12-29T04:53:23;2.97;;;1.37;;
2416;SDS011;1219;48.736;9.330;2022-12-29T04:55:50;1.80;;;1.70;;
2416;SDS011;1219;48.736;9.330;2022-12-29T04:58:16;2.00;;;1.50;;
2416;SDS011;1219;48.736;9.330;2022-12-29T05:00:42;2.27;;;1.50;;
2416;SDS011;1219;48.736;9.330;2022-12-29T05:03:08;1.63;;;1.53;;
2416;SDS011;1219;48.736;9.330;2022-12-29T05:05:34;2.90;;;1.70;;
2416;SDS011;1219;48.736;9.330;2022-12-29T05:08:00;1.93;;;1.20;;
2416;SDS011;1219;48.736;9.330;2022-12-29T05:10:26;2.87;;;1.73;;
2416;SDS011;1219;48.736;9.330;2022-12-29T05:12:52;2.00;;;1.90;;
2416;SDS011;1219;48.736;9.330;2022-12-29T05:15:18;3.23;;;2.10;;
2416;SDS011;1219;48.736;9.330;2022-12-29T05:17:44;1.80;;;1.70;;
2416;SDS011;1219;48.736;9.330;2022-12-29T05:20:10;4.37;;;1.90;;
2416;SDS011;1219;48.736;9.330;2022-12-29T05:22:36;2.30;;;1.53;;
2416;SDS011;1219;48.736;9.330;2022-12-29T05:25:02;1.50;;;1.40;;
2416;SDS011;1219;48.736;9.330;2022-12-29T05:27:28;4.40;;;1.47;;
2416;SDS011;1219;48.736;9.330;2022-12-29T05:29:54;2.17;;;1.60;;
2416;SDS011;1219;48.736;9.330;2022-12-29T05:32:20;2.10;;;1.80;;
2416;SDS011;1219;48.736;9.330;2022-12-29T05:34:46;2.17;;;1.53;;
2416;SDS011;1219;48.736;9.330;2022-12-29T05:37:12;2.73;;;1.60;;
2416;SDS011;1219;48.736;9.330;2022-12-29T05:39:38;1.80;;;1.60;;
2416;SDS011;1219;48.736;9.330;2022-12-29T05:42:03;1.40;;;1.30;;
2416;SDS011;1219;48.736;9.330;2022-12-29T05:44:29;1.67;;;1.57;;
2416;SDS011;1219;48.736;9.330;2022-12-29T05:46:55;2.33;;;1.50;;
2416;SDS011;1219;48.736;9.330;2022-12-29T05:49:21;2.00;;;1.90;;
2416;SDS011;1219;48.736;9.330;2022-12-29T05:51:47;3.10;;;2.50;;
2416;SDS011;1219;48.736;9.330;2022-12-29T05:54:13;4.40;;;1.40;;
2416;SDS011;1219;48.736;9.330;2022-12-29T05:56:39;1.50;;;1.40;;
2416;SDS011;1219;48.736;9.330;2022-12-29T05:59:05;2.87;;;1.60;;
2416;SDS011;1219;48.736;9.330;2022-12-29T06:01:31;1.67;;;1.57;;
2416;SDS011;1219;48.736;9.330;2022-12-29T06:03:59;1.53;;;1.43;;
2416;SDS011;1219;48.736;9.330;2022-12-29T06:06:25;2.60;;;1.60;;
2416;SDS011;1219;48.736;9.330;2022-12-29T06:08:50;1.70;;;1.60;;
2416;SDS011;1219;48.736;9.330;2022-12-29T06:11:16;1.67;;;1.53;;
2416;SDS011;1219;48.736;9.330;2022-12-29T06:13:42;2.83;;;1.60;;
2416;SDS011;1219;48.736;9.330;2022-12-29T06:16:08;3.07;;;1.43;;
2416;SDS011;1219;48.736;9.330;2022-12-29T06:18:34;2.90;;;1.80;;
2416;SDS011;1219;48.736;9.330;2022-12-29T06:21:01;1.80;;;1.70;;
2416;SDS011;1219;48.736;9.330;2022-12-29T06:23:27;2.40;;;2.20;;
2416;SDS011;1219;48.736;9.330;2022-12-29T06:25:53;2.70;;;1.50;;
2416;SDS011;1219;48.736;9.330;2022-12-29T06:28:19;1.90;;;1.50;;
2416;SDS011;1219;48.736;9.330;2022-12-29T06:30:45;2.40;;;1.60;;
2416;SDS011;1219;48.736;9.330;2022-12-29T06:33:12;1.70;;;1.57;;
2416;SDS011;1219;48.736;9.330;2022-12-29T06:35:38;1.90;;;1.70;;
2416;SDS011;1219;48.736;9.330;2022-12-29T06:38:04;2.43;;;2.00;;
2416;SDS011;1219;48.736;9.330;2022-12-29T06:40:30;2.13;;;1.93;;
2416;SDS011;1219;48.736;9.330;2022-12-29T06:42:56;2.47;;;1.67;;
2416;SDS011;1219;48.736;9.330;2022-12-29T06:45:23;2.03;;;1.70;;
2416;SDS011;1219;48.736;9.330;2022-12-29T06:47:49;1.80;;;1.70;;
2416;SDS011;1219;48.736;9.330;2022-12-29T06:50:15;3.87;;;1.70;;
2416;SDS011;1219;48.736;9.330;2022-12-29T06:52:41;3.60;;;2.73;;
2416;SDS011;1219;48.736;9.330;2022-12-29T06:55:07;1.93;;;1.40;;
2416;SDS011;1219;48.736;9.330;2022-12-29T06:57:33;1.97;;;1.87;;
2416;SDS011;1219;48.736;9.330;2022-12-29T06:59:59;2.37;;;2.17;;
2416;SDS011;1219;48.736;9.330;2022-12-29T07:02:25;2.33;;;2.10;;
2416;SDS011;1219;48.736;9.330;2022-12-29T07:04:51;2.70;;;1.80;;
2416;SDS011;1219;48.736;9.330;2022-12-29T07:07:18;2.87;;;2.00;;
2416;SDS011;1219;48.736;9.330;2022-12-29T07:09:44;2.13;;;1.73;;
2416;SDS011;1219;48.736;9.330;2022-12-29T07:12:10;1.87;;;1.77;;
2416;SDS011;1219;48.736;9.330;2022-12-29T07:14:36;2.40;;;2.00;;
2416;SDS011;1219;48.736;9.330;2022-12-29T07:17:02;1.90;;;1.70;;
2416;SDS011;1219;48.736;9.330;2022-12-29T07:19:31;1.80;;;1.70;;
2416;SDS011;1219;48.736;9.330;2022-12-29T07:21:57;3.00;;;1.90;;
2416;SDS011;1219;48.736;9.330;2022-12-29T07:24:23;2.23;;;1.83;;
2416;SDS011;1219;48.736;9.330;2022-12-29T07:26:50;2.10;;;1.80;;
2416;SDS011;1219;48.736;9.330;2022-12-29T07:29:16;2.03;;;1.60;;
2416;SDS011;1219;48.736;9.330;2022-12-29T07:31:42;1.93;;;1.83;;
2416;SDS011;1219;48.736;9.330;2022-12-29T07:34:08;2.43;;;2.00;;
2416;SDS011;1219;48.736;9.330;2022-12-29T07:36:34;2.43;;;1.80;;
2416;SDS011;1219;48.736;9.330;2022-12-29T07:39:01;1.70;;;1.50;;
2416;SDS011;1219;48.736;9.330;2022-12-29T07:41:26;3.20;;;2.20;;
2416;SDS011;1219;48.736;9.330;2022-12-29T07:43:52;2.10;;;1.70;;
2416;SDS011;1219;48.736;9.330;2022-12-29T07:46:18;4.60;;;2.10;;
2416;SDS011;1219;48.736;9.330;2022-12-29T07:48:44;2.40;;;2.20;;
2416;SDS011;1219;48.736;9.330;2022-12-29T07:51:10;2.03;;;1.70;;
2416;SDS011;1219;48.736;9.330;2022-12-29T07:53:36;1.90;;;1.80;;
2416;SDS011;1219;48.736;9.330;2022-12-29T07:56:02;2.70;;;1.70;;
2416;SDS011;1219;48.736;9.330;2022-12-29T07:58:28;1.53;;;1.43;;
2416;SDS011;1219;48.736;9.330;2022-12-29T08:00:54;2.13;;;1.77;;
2416;SDS011;1219;48.736;9.330;2022-12-29T08:03:20;2.00;;;1.80;;
2416;SDS011;1219;48.736;9.330;2022-12-29T08:05:47;1.97;;;1.87;;
2416;SDS011;1219;48.736;9.330;2022-12-29T08:08:13;1.57;;;1.47;;
2416;SDS011;1219;48.736;9.330;2022-12-29T08:10:39;1.67;;;1.57;;
2416;SDS011;1219;48.736;9.330;2022-12-29T08:13:05;2.90;;;1.73;;
2416;SDS011;1219;48.736;9.330;2022-12-29T08:15:30;2.97;;;2.20;;
2416;SDS011;1219;48.736;9.330;2022-12-29T08:17:56;2.47;;;1.63;;
2416;SDS011;1219;48.736;9.330;2022-12-29T08:20:22;1.90;;;1.80;;
2416;SDS011;1219;48.736;9.330;2022-12-29T08:22:48;7.30;;;6.10;;
2416;SDS011;1219;48.736;9.330;2022-12-29T08:25:14;2.10;;;1.90;;
2416;SDS011;1219;48.736;9.330;2022-12-29T08:27:40;3.40;;;3.20;;
2416;SDS011;1219;48.736;9.330;2022-12-29T08:30:07;3.23;;;1.73;;
2416;SDS011;1219;48.736;9.330;2022-12-29T08:32:33;3.80;;;1.73;;
2416;SDS011;1219;48.736;9.330;2022-12-29T08:34:59;4.93;;;1.70;;
2416;SDS011;1219;48.736;9.330;2022-12-29T08:37:25;1.73;;;1.63;;
2416;SDS011;1219;48.736;9.330;2022-12-29T08:39:51;5.17;;;1.80;;
2416;SDS011;1219;48.736;9.330;2022-12-29T08:42:17;2.17;;;1.97;;
2416;SDS011;1219;48.736;9.330;2022-12-29T08:44:43;2.20;;;2.00;;
2416;SDS011;1219;48.736;9.330;2022-12-29T08:47:09;2.00;;;1.67;;
2416;SDS011;1219;48.736;9.330;2022-12-29T08:49:36;2.10;;;1.97;;
2416;SDS011;1219;48.736;9.330;2022-12-29T08:52:02;1.77;;;1.67;;
2416;SDS011;1219;48.736;9.330;2022-12-29T08:54:28;1.50;;;1.40;;
2416;SDS011;1219;48.736;9.330;2022-12-29T08:56:54;1.73;;;1.63;;
2416;SDS011;1219;48.736;9.330;2022-12-29T08:59:20;2.10;;;1.90;;
2416;SDS011;1219;48.736;9.330;2022-12-29T09:01:46;3.50;;;1.90;;
2416;SDS011;1219;48.736;9.330;2022-12-29T09:04:11;1.77;;;1.60;;
2416;SDS011;1219;48.736;9.330;2022-12-29T09:06:37;1.80;;;1.70;;
2416;SDS011;1219;48.736;9.330;2022-12-29T09:09:03;2.53;;;1.77;;
2416;SDS011;1219;48.736;9.330;2022-12-29T09:11:29;1.80;;;1.70;;
2416;SDS011;1219;48.736;9.330;2022-12-29T09:13:55;2.23;;;1.80;;
2416;SDS011;1219;48.736;9.330;2022-12-29T09:16:22;2.20;;;1.40;;
2416;SDS011;1219;48.736;9.330;2022-12-29T09:18:48;1.93;;;1.70;;
2416;SDS011;1219;48.736;9.330;2022-12-29T09:21:14;4.80;;;1.60;;
2416;SDS011;1219;48.736;9.330;2022-12-29T09:23:40;3.80;;;1.97;;
2416;SDS011;1219;48.736;9.330;2022-12-29T09:26:06;2.00;;;1.70;;
2416;SDS011;1219;48.736;9.330;2022-12-29T09:28:33;1.73;;;1.60;;
2416;SDS011;1219;48.736;9.330;2022-12-29T09:30:59;3.03;;;1.90;;
2416;SDS011;1219;48.736;9.330;2022-12-29T09:33:25;2.50;;;1.67;;
2416;SDS011;1219;48.736;9.330;2022-12-29T09:35:55;2.00;;;1.60;;
2416;SDS011;1219;48.736;9.330;2022-12-29T09:38:22;2.07;;;1.63;;
2416;SDS011;1219;48.736;9.330;2022-12-29T09:40:52;5.30;;;1.90;;
2416;SDS011;1219;48.736;9.330;2022-12-29T09:46:24;4.17;;;1.90;;
2416;SDS011;1219;48.736;9.330;2022-12-29T09:51:39;2.30;;;1.73;;
2416;SDS011;1219;48.736;9.330;2022-12-29T09:54:22;3.13;;;1.57;;
2416;SDS011;1219;48.736;9.330;2022-12-29T09:56:48;2.70;;;1.50;;
2416;SDS011;1219;48.736;9.330;2022-12-29T09:59:19;1.80;;;1.60;;
2416;SDS011;1219;48.736;9.330;2022-12-29T10:01:49;3.30;;;1.80;;
2416;SDS011;1219;48.736;9.330;2022-12-29T10:04:17;1.90;;;1.50;;
2416;SDS011;1219;48.736;9.330;2022-12-29T10:14:21;3.87;;;3.50;;
2416;SDS011;1219;48.736;9.330;2022-12-29T10:16:59;2.00;;;1.80;;
2416;SDS011;1219;48.736;9.330;2022-12-29T10:19:40;2.20;;;1.70;;
2416;SDS011;1219;48.736;9.330;2022-12-29T10:24:37;1.57;;;1.47;;
2416;SDS011;1219;48.736;9.330;2022-12-29T10:27:03;3.30;;;1.87;;
2416;SDS011;1219;48.736;9.330;2022-12-29T10:29:36;1.50;;;1.40;;
2416;SDS011;1219;48.736;9.330;2022-12-29T10:32:09;2.50;;;1.57;;
2416;SDS011;1219;48.736;9.330;2022-12-29T10:34:44;1.73;;;1.63;;
2416;SDS011;1219;48.736;9.330;2022-12-29T10:39:55;2.53;;;1.60;;
2416;SDS011;1219;48.736;9.330;2022-12-29T10:42:29;2.20;;;1.50;;
2416;SDS011;1219;48.736;9.330;2022-12-29T10:44:58;3.03;;;1.60;;
2416;SDS011;1219;48.736;9.330;2022-12-29T10:47:26;1.70;;;1.60;;
2416;SDS011;1219;48.736;9.330;2022-12-29T10:49:53;2.63;;;1.60;;
2416;SDS011;1219;48.736;9.330;2022-12-29T10:52:19;1.70;;;1.53;;
2416;SDS011;1219;48.736;9.330;2022-12-29T10:54:51;2.70;;;1.80;;
2416;SDS011;1219;48.736;9.330;2022-12-29T10:59:47;3.00;;;1.60;;
2416;SDS011;1219;48.736;9.330;2022-12-29T11:04:55;2.23;;;1.50;;
2416;SDS011;1219;48.736;9.330;2022-12-29T11:07:23;2.60;;;1.80;;
2416;SDS011;1219;48.736;9.330;2022-12-29T11:09:51;2.03;;;1.70;;
2416;SDS011;1219;48.736;9.330;2022-12-29T11:12:21;3.30;;;1.60;;
2416;SDS011;1219;48.736;9.330;2022-12-29T11:14:50;3.37;;;1.60;;
2416;SDS011;1219;48.736;9.330;2022-12-29T11:17:26;1.93;;;1.83;;
2416;SDS011;1219;48.736;9.330;2022-12-29T11:19:52;3.90;;;1.40;;
2416;SDS011;1219;48.736;9.330;2022-12-29T11:22:25;2.40;;;1.40;;
2416;SDS011;1219;48.736;9.330;2022-12-29T11:24:51;1.90;;;1.70;;
2416;SDS011;1219;48.736;9.330;2022-12-29T11:29:45;1.60;;;1.50;;
2416;SDS011;1219;48.736;9.330;2022-12-29T11:32:13;2.27;;;1.60;;
2416;SDS011;1219;48.736;9.330;2022-12-29T11:34:42;1.90;;;1.80;;
2416;SDS011;1219;48.736;9.330;2022-12-29T11:37:13;3.60;;;2.10;;
2416;SDS011;1219;48.736;9.330;2022-12-29T11:39:49;3.63;;;1.70;;
2416;SDS011;1219;48.736;9.330;2022-12-29T11:42:16;1.80;;;1.70;;
2416;SDS011;1219;48.736;9.330;2022-12-29T11:44:44;1.70;;;1.60;;
2416;SDS011;1219;48.736;9.330;2022-12-29T11:47:12;1.80;;;1.67;;
2416;SDS011;1219;48.736;9.330;2022-12-29T11:49:39;2.40;;;1.57;;
2416;SDS011;1219;48.736;9.330;2022-12-29T11:52:06;1.57;;;1.47;;
2416;SDS011;1219;48.736;9.330;2022-12-29T11:54:33;1.50;;;1.40;;
2416;SDS011;1219;48.736;9.330;2022-12-29T11:57:08;1.70;;;1.60;;
2416;SDS011;1219;48.736;9.330;2022-12-29T11:59:37;1.70;;;1.60;;
2416;SDS011;1219;48.736;9.330;2022-12-29T12:04:35;1.70;;;1.60;;
2416;SDS011;1219;48.736;9.330;2022-12-29T12:07:12;3.03;;;1.60;;
2416;SDS011;1219;48.736;9.330;2022-12-29T12:09:58;1.57;;;1.47;;
2416;SDS011;1219;48.736;9.330;2022-12-29T12:12:34;1.83;;;1.40;;
2416;SDS011;1219;48.736;9.330;2022-12-29T12:15:03;1.60;;;1.50;;
2416;SDS011;1219;48.736;9.330;2022-12-29T12:17:30;1.80;;;1.70;;
2416;SDS011;1219;48.736;9.330;2022-12-29T12:20:16;1.80;;;1.70;;
2416;SDS011;1219;48.736;9.330;2022-12-29T12:22:50;1.93;;;1.80;;
2416;SDS011;1219;48.736;9.330;2022-12-29T12:25:21;2.73;;;1.80;;
2416;SDS011;1219;48.736;9.330;2022-12-29T12:30:36;2.00;;;1.70;;
2416;SDS011;1219;48.736;9.330;2022-12-29T12:40:56;1.73;;;1.60;;
2416;SDS011;1219;48.736;9.330;2022-12-29T12:43:35;1.53;;;1.43;;
2416;SDS011;1219;48.736;9.330;2022-12-29T12:46:16;7.47;;;1.50;;
2416;SDS011;1219;48.736;9.330;2022-12-29T12:51:41;2.60;;;1.90;;
2416;SDS011;1219;48.736;9.330;2022-12-29T13:01:59;1.93;;;1.73;;
2416;SDS011;1219;48.736;9.330;2022-12-29T13:15:17;4.30;;;3.30;;
2416;SDS011;1219;48.736;9.330;2022-12-29T13:17:54;2.07;;;1.77;;
2416;SDS011;1219;48.736;9.330;2022-12-29T13:22:57;2.00;;;1.80;;
2416;SDS011;1219;48.736;9.330;2022-12-29T13:30:21;1.80;;;1.70;;
2416;SDS011;1219;48.736;9.330;2022-12-29T13:32:54;1.63;;;1.53;;
2416;SDS011;1219;48.736;9.330;2022-12-29T13:35:41;3.13;;;2.50;;
2416;SDS011;1219;48.736;9.330;2022-12-29T13:38:17;2.30;;;1.37;;
2416;SDS011;1219;48.736;9.330;2022-12-29T13:40:49;1.50;;;1.40;;
2416;SDS011;1219;48.736;9.330;2022-12-29T13:43:16;2.20;;;1.77;;
2416;SDS011;1219;48.736;9.330;2022-12-29T13:45:43;1.80;;;1.70;;
2416;SDS011;1219;48.736;9.330;2022-12-29T13:48:17;2.60;;;1.60;;
2416;SDS011;1219;48.736;9.330;2022-12-29T13:50:50;1.60;;;1.50;;
2416;SDS011;1219;48.736;9.330;2022-12-29T13:53:33;1.80;;;1.70;;
2416;SDS011;1219;48.736;9.330;2022-12-29T13:56:10;1.73;;;1.60;;
2416;SDS011;1219;48.736;9.330;2022-12-29T13:58:46;1.73;;;1.63;;
2416;SDS011;1219;48.736;9.330;2022-12-29T14:03:49;3.50;;;1.70;;
2416;SDS011;1219;48.736;9.330;2022-12-29T14:06:17;1.87;;;1.77;;
2416;SDS011;1219;48.736;9.330;2022-12-29T14:08:44;1.90;;;1.70;;
2416;SDS011;1219;48.736;9.330;2022-12-29T14:11:10;3.53;;;1.67;;
2416;SDS011;1219;48.736;9.330;2022-12-29T14:13:38;2.00;;;1.80;;
2416;SDS011;1219;48.736;9.330;2022-12-29T14:16:05;2.73;;;1.90;;
2416;SDS011;1219;48.736;9.330;2022-12-29T14:18:31;1.90;;;1.80;;
2416;SDS011;1219;48.736;9.330;2022-12-29T14:21:17;2.57;;;1.80;;
2416;SDS011;1219;48.736;9.330;2022-12-29T14:23:48;2.30;;;1.90;;
2416;SDS011;1219;48.736;9.330;2022-12-29T14:26:32;4.93;;;2.30;;
2416;SDS011;1219;48.736;9.330;2022-12-29T14:31:43;3.83;;;2.33;;
2416;SDS011;1219;48.736;9.330;2022-12-29T14:36:37;8.13;;;2.17;;
2416;SDS011;1219;48.736;9.330;2022-12-29T14:39:04;2.27;;;2.03;;
2416;SDS011;1219;48.736;9.330;2022-12-29T14:41:59;2.17;;;1.97;;
2416;SDS011;1219;48.736;9.330;2022-12-29T14:44:25;5.00;;;2.27;;
2416;SDS011;1219;48.736;9.330;2022-12-29T14:49:19;2.27;;;1.70;;
2416;SDS011;1219;48.736;9.330;2022-12-29T14:51:46;3.17;;;1.80;;
2416;SDS011;1219;48.736;9.330;2022-12-29T14:56:58;2.10;;;2.00;;
2416;SDS011;1219;48.736;9.330;2022-12-29T14:59:24;2.20;;;1.90;;
2416;SDS011;1219;48.736;9.330;2022-12-29T15:01:52;2.60;;;2.10;;
2416;SDS011;1219;48.736;9.330;2022-12-29T15:04:20;2.57;;;1.80;;
2416;SDS011;1219;48.736;9.330;2022-12-29T15:06:46;1.97;;;1.87;;
2416;SDS011;1219;48.736;9.330;2022-12-29T15:09:28;1.97;;;1.83;;
2416;SDS011;1219;48.736;9.330;2022-12-29T15:12:04;2.20;;;1.93;;
2416;SDS011;1219;48.736;9.330;2022-12-29T15:14:36;2.20;;;2.00;;
2416;SDS011;1219;48.736;9.330;2022-12-29T15:17:08;2.43;;;2.20;;
2416;SDS011;1219;48.736;9.330;2022-12-29T15:19:35;3.13;;;2.57;;
2416;SDS011;1219;48.736;9.330;2022-12-29T15:22:01;2.73;;;2.53;;
2416;SDS011;1219;48.736;9.330;2022-12-29T15:24:27;2.50;;;2.30;;
2416;SDS011;1219;48.736;9.330;2022-12-29T15:26:54;2.50;;;2.30;;
2416;SDS011;1219;48.736;9.330;2022-12-29T15:29:30;3.90;;;3.17;;
2416;SDS011;1219;48.736;9.330;2022-12-29T15:31:58;3.80;;;2.53;;
2416;SDS011;1219;48.736;9.330;2022-12-29T15:34:24;3.20;;;2.90;;
2416;SDS011;1219;48.736;9.330;2022-12-29T15:36:50;2.87;;;2.57;;
2416;SDS011;1219;48.736;9.330;2022-12-29T15:39:18;3.40;;;3.10;;
2416;SDS011;1219;48.736;9.330;2022-12-29T15:41:47;2.53;;;1.90;;
2416;SDS011;1219;48.736;9.330;2022-12-29T15:44:39;3.60;;;2.47;;
2416;SDS011;1219;48.736;9.330;2022-12-29T15:47:05;3.00;;;2.60;;
2416;SDS011;1219;48.736;9.330;2022-12-29T15:49:32;2.57;;;2.03;;
2416;SDS011;1219;48.736;9.330;2022-12-29T15:51:58;3.27;;;2.23;;
2416;SDS011;1219;48.736;9.330;2022-12-29T15:54:24;5.80;;;3.97;;
2416;SDS011;1219;48.736;9.330;2022-12-29T15:56:52;4.10;;;2.93;;
2416;SDS011;1219;48.736;9.330;2022-12-29T15:59:28;2.10;;;1.83;;
2416;SDS011;1219;48.736;9.330;2022-12-29T16:01:55;2.60;;;2.40;;
2416;SDS011;1219;48.736;9.330;2022-12-29T16:04:21;4.97;;;2.80;;
2416;SDS011;1219;48.736;9.330;2022-12-29T16:06:54;2.83;;;2.63;;
2416;SDS011;1219;48.736;9.330;2022-12-29T16:09:31;2.10;;;1.80;;
2416;SDS011;1219;48.736;9.330;2022-12-29T16:11:58;3.67;;;1.80;;
2416;SDS011;1219;48.736;9.330;2022-12-29T16:14:32;4.73;;;2.10;;
2416;SDS011;1219;48.736;9.330;2022-12-29T16:17:01;2.43;;;2.23;;
2416;SDS011;1219;48.736;9.330;2022-12-29T16:19:32;4.03;;;1.90;;
2416;SDS011;1219;48.736;9.330;2022-12-29T16:21:59;2.37;;;2.17;;
2416;SDS011;1219;48.736;9.330;2022-12-29T16:24:26;2.87;;;1.83;;
2416;SDS011;1219;48.736;9.330;2022-12-29T16:27:19;2.70;;;1.70;;
2416;SDS011;1219;48.736;9.330;2022-12-29T16:29:41;1.90;;;1.80;;
2416;SDS011;1219;48.736;9.330;2022-12-29T16:35:00;1.83;;;1.73;;
2416;SDS011;1219;48.736;9.330;2022-12-29T16:37:29;1.97;;;1.87;;
2416;SDS011;1219;48.736;9.330;2022-12-29T16:39:56;3.13;;;1.80;;
2416;SDS011;1219;48.736;9.330;2022-12-29T16:50:29;1.70;;;1.60;;
2416;SDS011;1219;48.736;9.330;2022-12-29T16:52:55;3.47;;;2.57;;
2416;SDS011;1219;48.736;9.330;2022-12-29T16:55:20;1.90;;;1.63;;
2416;SDS011;1219;48.736;9.330;2022-12-29T16:57:47;2.53;;;1.50;;
2416;SDS011;1219;48.736;9.330;2022-12-29T17:00:18;1.80;;;1.70;;
2416;SDS011;1219;48.736;9.330;2022-12-29T17:02:45;1.60;;;1.50;;
2416;SDS011;1219;48.736;9.330;2022-12-29T17:05:15;1.57;;;1.43;;
2416;SDS011;1219;48.736;9.330;2022-12-29T17:07:41;1.70;;;1.60;;
2416;SDS011;1219;48.736;9.330;2022-12-29T17:10:07;1.87;;;1.37;;
2416;SDS011;1219;48.736;9.330;2022-12-29T17:12:33;1.90;;;1.50;;
2416;SDS011;1219;48.736;9.330;2022-12-29T17:15:06;3.80;;;1.90;;
2416;SDS011;1219;48.736;9.330;2022-12-29T17:17:47;2.73;;;1.60;;
2416;SDS011;1219;48.736;9.330;2022-12-29T17:22:43;1.97;;;1.60;;
2416;SDS011;1219;48.736;9.330;2022-12-29T17:25:13;1.40;;;1.30;;